createdAt,value
2023-05-09T00:10:49.034Z,22.40
2023-05-09T00:11:47.313Z,22.50
2023-05-09T00:12:47.383Z,22.60
2023-05-09T00:13:47.330Z,23.00
2023-05-09T00:14:47.334Z,22.10
2023-05-09T00:15:47.285Z,22.70
2023-05-09T00:16:47.327Z,21.90
2023-05-09T00:17:47.285Z,21.00
2023-05-09T00:18:47.534Z,21.60
2023-05-09T00:19:47.434Z,22.10
2023-05-09T00:20:47.231Z,21.60
2023-05-09T00:21:47.235Z,21.60
2023-05-09T00:22:47.246Z,21.20
2023-05-09T00:23:47.203Z,20.90
2023-05-09T00:24:47.225Z,21.10
2023-05-09T00:25:47.221Z,20.90
2023-05-09T00:26:47.170Z,21.00
2023-05-09T00:27:47.156Z,20.80
2023-05-09T00:28:47.160Z,20.80
2023-05-09T00:29:47.161Z,21.70
2023-05-09T00:30:47.140Z,22.00
2023-05-09T00:31:47.146Z,21.40
2023-05-09T00:32:47.218Z,20.50
2023-05-09T00:33:47.092Z,20.20
2023-05-09T00:34:47.093Z,20.50
2023-05-09T00:35:47.041Z,19.60
2023-05-09T00:36:47.078Z,20.70
2023-05-09T00:37:47.070Z,19.80
2023-05-09T00:38:47.026Z,20.00
2023-05-09T00:39:47.022Z,20.50
2023-05-09T00:40:47.030Z,19.70
2023-05-09T00:41:47.018Z,19.00
2023-05-09T00:42:47.045Z,19.90
2023-05-09T00:43:46.954Z,19.30
2023-05-09T00:44:46.976Z,19.30
2023-05-09T00:45:46.968Z,20.00
2023-05-09T00:46:46.944Z,20.10
2023-05-09T00:47:46.979Z,19.30
2023-05-09T00:48:46.922Z,19.60
2023-05-09T00:49:46.907Z,19.10
2023-05-09T00:50:46.930Z,19.90
2023-05-09T00:51:46.870Z,19.70
2023-05-09T00:52:46.877Z,19.20
2023-05-09T00:53:46.861Z,20.50
2023-05-09T00:54:46.848Z,20.40
2023-05-09T00:55:47.562Z,19.50
2023-05-09T00:56:46.810Z,19.30
2023-05-09T00:57:46.793Z,19.40
2023-05-09T00:58:46.801Z,20.00
2023-05-09T00:59:46.826Z,19.80
2023-05-09T01:16:47.368Z,22.90
2023-05-09T01:17:26.349Z,22.60
2023-05-09T01:18:26.311Z,23.00
2023-05-09T01:19:26.354Z,23.10
2023-05-09T01:20:26.299Z,24.00
2023-05-09T01:21:26.291Z,23.00
2023-05-09T01:22:26.274Z,23.00
2023-05-09T01:23:26.282Z,23.10
2023-05-09T01:24:26.258Z,23.40
2023-05-09T01:25:26.230Z,22.70
2023-05-09T01:26:26.250Z,23.00
2023-05-09T01:27:26.217Z,22.70
2023-05-09T01:28:26.243Z,24.10
2023-05-09T01:29:26.197Z,24.00
2023-05-09T01:30:33.952Z,23.00
2023-05-09T02:12:49.146Z,27.40
2023-05-09T02:13:28.355Z,27.50
2023-05-09T02:14:26.818Z,26.60
2023-05-09T02:15:26.823Z,26.40
2023-05-09T02:16:26.795Z,25.90
2023-05-09T02:17:26.861Z,26.60
2023-05-09T02:18:26.759Z,26.60
2023-05-09T02:19:30.051Z,25.90
2023-05-09T02:20:26.750Z,26.30
2023-05-09T02:21:29.026Z,26.20
2023-05-09T02:22:26.714Z,27.00
2023-05-09T02:23:26.706Z,27.00
2023-05-09T02:24:26.724Z,26.10
2023-05-09T02:25:26.684Z,25.20
2023-05-09T02:26:26.698Z,25.30
2023-05-09T02:27:26.664Z,24.80
2023-05-09T02:28:26.670Z,23.70
2023-05-09T02:29:26.652Z,23.80
2023-05-09T02:30:26.625Z,23.40
2023-05-09T02:31:26.708Z,24.50
2023-05-09T02:32:26.643Z,23.50
2023-05-09T02:33:26.654Z,23.80
2023-05-09T02:34:26.593Z,23.70
2023-05-09T02:35:26.767Z,23.00
2023-05-09T02:36:27.672Z,22.30
2023-05-09T02:37:26.575Z,22.30
2023-05-09T02:38:26.548Z,22.00
2023-05-09T02:39:26.542Z,20.90
2023-05-09T02:40:26.534Z,21.50
2023-05-09T02:41:26.516Z,21.90
2023-05-09T02:42:26.498Z,21.20
2023-05-09T02:43:26.510Z,20.40
2023-05-09T02:44:26.478Z,20.40
2023-05-09T02:45:26.469Z,21.40
2023-05-09T02:46:26.577Z,20.80
2023-05-09T02:47:26.626Z,20.20
2023-05-09T02:48:26.446Z,20.80
2023-05-09T02:49:32.000Z,19.80
2023-05-09T02:50:27.457Z,19.70
2023-05-09T02:51:26.439Z,20.90
2023-05-09T02:52:26.400Z,19.30
2023-05-09T02:53:26.387Z,21.10
2023-05-09T02:54:26.368Z,20.80
2023-05-09T02:55:26.365Z,21.50
2023-05-09T02:56:26.371Z,21.10
2023-05-09T02:57:26.350Z,19.90
2023-05-09T02:58:26.366Z,20.90
2023-05-09T02:59:26.313Z,21.00
2023-05-09T03:00:26.310Z,21.10
2023-05-09T03:01:26.373Z,22.20
2023-05-09T03:02:26.365Z,21.40
2023-05-09T03:03:26.367Z,22.00
2023-05-09T03:04:26.301Z,22.40
2023-05-09T03:05:26.249Z,20.70
2023-05-09T03:06:26.257Z,21.20
2023-05-09T03:07:26.238Z,20.70
2023-05-09T03:08:26.232Z,21.10
2023-05-09T03:09:26.226Z,21.30
2023-05-09T03:10:26.211Z,21.10
2023-05-09T03:11:26.317Z,20.90
2023-05-09T03:12:26.173Z,21.70
2023-05-09T03:13:26.218Z,21.40
2023-05-09T03:14:26.192Z,21.30
2023-05-09T03:15:26.160Z,21.40
2023-05-09T03:16:26.173Z,21.10
2023-05-09T03:17:26.192Z,21.00
2023-05-09T03:18:26.133Z,21.20
2023-05-09T03:19:26.102Z,20.60
2023-05-09T03:20:26.110Z,21.40
2023-05-09T03:21:26.083Z,21.70
2023-05-09T03:22:26.061Z,21.50
2023-05-09T03:23:26.059Z,21.30
2023-05-09T03:24:26.046Z,21.60
2023-05-09T03:25:26.079Z,21.40
2023-05-09T03:26:26.030Z,22.00
2023-05-09T03:27:26.059Z,21.60
2023-05-09T03:28:26.019Z,21.60
2023-05-09T03:29:26.016Z,21.70
2023-05-09T03:30:25.999Z,20.90
2023-05-09T03:31:26.007Z,21.40
2023-05-09T03:32:25.980Z,20.90
2023-05-09T03:33:25.957Z,20.70
2023-05-09T03:34:25.955Z,21.00
2023-05-09T03:35:25.929Z,20.50
2023-05-09T03:36:25.912Z,19.90
2023-05-09T03:37:27.261Z,20.50
2023-05-09T03:38:25.913Z,20.10
2023-05-09T03:39:25.946Z,20.60
2023-05-09T03:40:25.880Z,20.40
2023-05-09T03:41:25.872Z,19.70
2023-05-09T03:42:25.862Z,20.30
2023-05-09T03:43:25.866Z,20.10
2023-05-09T03:44:25.869Z,20.40
2023-05-09T03:45:25.828Z,20.50
2023-05-09T03:46:25.846Z,20.30
2023-05-09T03:47:25.828Z,19.10
2023-05-09T03:48:25.814Z,19.70
2023-05-09T03:49:25.779Z,19.70
2023-05-09T03:50:25.782Z,19.60
2023-05-09T03:51:25.752Z,20.60
2023-05-09T03:52:25.770Z,19.80
2023-05-09T03:53:25.763Z,20.30
2023-05-09T03:54:25.739Z,19.20
2023-05-09T03:55:25.728Z,19.50
2023-05-09T03:56:25.707Z,19.40
2023-05-09T03:57:25.710Z,19.20
2023-05-09T03:58:25.699Z,19.20
2023-05-09T03:59:27.742Z,19.50
2023-05-09T04:00:25.669Z,19.80
2023-05-09T04:01:25.657Z,19.90
2023-05-09T04:02:25.754Z,19.60
2023-05-09T04:03:25.672Z,19.10
2023-05-09T04:04:25.623Z,18.60
2023-05-09T04:05:25.634Z,19.30
2023-05-09T04:06:25.602Z,19.80
2023-05-09T04:07:25.594Z,19.40
2023-05-09T04:08:25.578Z,19.30
2023-05-09T04:09:25.565Z,18.80
2023-05-09T04:10:25.550Z,18.60
2023-05-09T04:11:25.553Z,18.90
2023-05-09T04:12:25.542Z,18.80
2023-05-09T04:13:25.581Z,18.50
2023-05-09T04:14:25.518Z,18.90
2023-05-09T04:15:25.496Z,17.60
2023-05-09T04:16:25.512Z,18.90
2023-05-09T04:17:25.519Z,18.30
2023-05-09T04:18:25.480Z,18.30
2023-05-09T04:19:25.451Z,18.10
2023-05-09T04:20:26.947Z,17.80
2023-05-09T04:21:25.484Z,18.10
2023-05-09T04:22:25.459Z,19.00
2023-05-09T04:23:25.450Z,18.40
2023-05-09T04:24:25.449Z,18.20
2023-05-09T04:25:25.443Z,19.00
2023-05-09T04:26:25.412Z,19.00
2023-05-09T04:27:25.437Z,18.30
2023-05-09T04:28:25.420Z,17.80
2023-05-09T04:29:25.404Z,18.30
2023-05-09T04:30:25.403Z,18.10
2023-05-09T04:31:25.474Z,17.80
2023-05-09T04:32:25.360Z,18.20
2023-05-09T04:33:25.339Z,17.90
2023-05-09T04:34:25.350Z,17.70
2023-05-09T04:35:25.332Z,19.00
2023-05-09T04:36:25.312Z,18.40
2023-05-09T04:37:25.291Z,18.60
2023-05-09T04:38:25.316Z,19.40
2023-05-09T04:39:25.299Z,19.10
2023-05-09T04:40:26.830Z,18.80
2023-05-09T04:41:25.308Z,18.30
2023-05-09T04:42:25.245Z,18.30
2023-05-09T04:43:25.231Z,18.90
2023-05-09T04:44:25.253Z,18.60
2023-05-09T04:45:25.234Z,17.80
2023-05-09T04:46:25.840Z,18.00
2023-05-09T04:47:25.230Z,17.60
2023-05-09T04:48:25.189Z,18.30
2023-05-09T04:49:25.159Z,17.70
2023-05-09T04:50:25.203Z,17.70
2023-05-09T04:51:25.134Z,17.90
2023-05-09T04:52:25.106Z,17.50
2023-05-09T04:53:25.147Z,17.60
2023-05-09T04:54:25.111Z,17.50
2023-05-09T04:55:25.097Z,17.60
2023-05-09T04:56:25.081Z,18.20
2023-05-09T04:57:25.059Z,16.80
2023-05-09T04:58:25.062Z,16.90
2023-05-09T04:59:25.103Z,17.10
2023-05-09T05:00:25.055Z,17.90
2023-05-09T05:01:25.071Z,17.00
2023-05-09T05:02:25.056Z,16.90
2023-05-09T05:03:24.990Z,16.80
2023-05-09T05:04:25.031Z,17.60
2023-05-09T05:05:25.766Z,17.00
2023-05-09T05:06:25.326Z,17.40
2023-05-09T06:51:35.167Z,17.80
2023-05-09T06:52:02.855Z,17.90
2023-05-09T06:57:18.931Z,19.00
2023-05-09T07:33:59.858Z,18.30
2023-05-09T07:34:31.536Z,18.30
2023-05-09T07:35:30.263Z,18.50
2023-05-09T07:36:30.329Z,17.80
2023-05-09T07:37:30.243Z,18.60
2023-05-09T07:38:30.213Z,17.90
2023-05-09T07:39:30.222Z,18.70
2023-05-09T07:40:30.195Z,17.60
2023-05-09T07:41:30.185Z,18.00
2023-05-09T07:42:30.201Z,17.70
2023-05-09T07:43:30.169Z,17.80
2023-05-09T07:44:30.153Z,18.10
2023-05-09T07:45:30.187Z,18.10
2023-05-09T07:46:30.163Z,17.90
2023-05-09T07:47:30.184Z,17.30
2023-05-09T07:48:30.373Z,17.60
2023-05-09T07:49:30.107Z,18.30
2023-05-09T07:50:30.083Z,17.60
2023-05-09T07:51:30.075Z,17.40
2023-05-09T07:52:30.098Z,17.50
2023-05-09T07:53:30.075Z,17.00
2023-05-09T07:54:30.075Z,17.20
2023-05-09T07:55:30.037Z,18.30
2023-05-09T07:56:30.079Z,17.60
2023-05-09T07:57:30.031Z,17.70
2023-05-09T07:58:51.217Z,17.90
2023-05-09T07:59:30.009Z,17.40
2023-05-09T08:00:30.014Z,17.60
2023-05-09T08:01:29.999Z,16.70
2023-05-09T08:02:30.034Z,17.70
2023-05-09T08:03:30.028Z,18.20
2023-05-09T08:04:30.190Z,18.80
2023-05-09T08:05:29.965Z,18.50
2023-05-09T08:06:48.770Z,18.10
2023-05-09T08:07:51.101Z,18.20
2023-05-09T08:08:30.168Z,18.70
2023-05-09T08:09:32.227Z,18.50
2023-05-09T08:10:42.209Z,18.10
2023-05-09T08:53:38.891Z,16.60
2023-05-09T08:54:37.887Z,16.00
2023-05-09T08:55:37.318Z,17.20
2023-05-09T08:56:37.289Z,16.20
2023-05-09T08:57:37.491Z,16.40
2023-05-09T08:58:58.357Z,16.60
2023-05-09T08:59:37.331Z,16.60
2023-05-09T18:12:59.668Z,17.50
2023-05-09T18:13:58.097Z,17.60
2023-05-09T18:14:56.459Z,16.60
2023-05-09T18:15:56.533Z,16.50
2023-05-09T18:16:56.467Z,16.60
2023-05-09T18:17:57.173Z,16.30
2023-05-09T18:18:56.412Z,16.20
2023-05-09T18:19:56.513Z,15.40
2023-05-09T18:20:56.424Z,15.30
2023-05-09T18:21:56.424Z,16.40
2023-05-09T18:22:56.338Z,13.90
2023-05-09T18:23:56.311Z,13.10
2023-05-09T18:24:56.325Z,13.50
2023-05-09T18:25:56.388Z,14.20
2023-05-09T18:26:56.314Z,13.90
2023-05-09T18:27:56.282Z,13.50
2023-05-09T18:28:56.268Z,14.80
2023-05-09T18:29:56.263Z,14.70
2023-05-09T18:30:56.327Z,15.10
2023-05-09T18:31:56.410Z,15.20
2023-05-09T18:32:56.331Z,14.20
2023-05-09T18:33:56.247Z,13.40
2023-05-09T18:34:56.275Z,13.70
2023-05-09T18:35:56.234Z,13.40
2023-05-09T18:36:56.248Z,12.80
2023-05-09T18:37:56.181Z,12.40
2023-05-09T18:38:56.152Z,12.30
2023-05-09T18:39:56.221Z,11.40
2023-05-09T18:40:56.537Z,11.00
2023-05-09T18:42:17.185Z,10.70
2023-05-09T18:42:56.137Z,10.70
2023-05-09T18:43:56.121Z,11.30
2023-05-09T18:44:56.173Z,11.00
2023-05-09T18:45:56.093Z,10.30
2023-05-09T18:46:56.140Z,10.40
2023-05-09T18:47:56.181Z,10.50
2023-05-09T18:48:56.082Z,10.10
2023-05-09T18:50:02.317Z,9.70
2023-05-09T18:50:56.050Z,9.90
2023-05-09T18:51:56.017Z,10.00
2023-05-09T18:52:56.066Z,9.70
2023-05-09T18:53:56.004Z,10.00
2023-05-09T18:54:56.049Z,10.60
2023-05-09T18:55:56.174Z,10.30
2023-05-09T18:56:55.986Z,10.20
2023-05-09T18:57:58.275Z,11.20
2023-05-09T18:58:55.989Z,11.10
2023-05-09T18:59:56.024Z,10.90
2023-05-09T19:00:55.966Z,10.70
2023-05-09T19:02:19.283Z,10.40
2023-05-09T19:02:55.948Z,10.40
2023-05-09T19:03:56.015Z,11.10
2023-05-09T19:04:55.936Z,10.20
2023-05-09T19:06:19.003Z,10.20
2023-05-09T19:06:55.909Z,11.60
2023-05-09T19:07:57.247Z,10.70
2023-05-09T19:08:55.839Z,11.00
2023-05-09T19:09:55.851Z,11.20
2023-05-09T19:10:55.854Z,10.20
2023-05-09T19:11:55.867Z,11.00
2023-05-09T19:12:55.857Z,11.80
2023-05-09T19:13:55.824Z,11.30
2023-05-09T19:14:55.973Z,11.50
2023-05-09T19:15:55.760Z,11.60
2023-05-09T19:16:55.826Z,10.90
2023-05-09T19:17:55.765Z,11.20
2023-05-09T19:18:55.777Z,11.80
2023-05-09T19:19:55.727Z,12.00
2023-05-09T19:20:55.736Z,12.70
2023-05-09T19:21:57.482Z,11.70
2023-05-09T19:22:55.672Z,12.40
2023-05-09T19:23:56.657Z,12.20
2023-05-09T19:24:55.684Z,11.40
2023-05-09T19:25:55.685Z,12.10
2023-05-09T19:26:55.691Z,13.20
2023-05-09T19:27:55.654Z,12.70
2023-05-09T19:28:55.615Z,12.50
2023-05-09T19:29:55.606Z,14.20
2023-05-09T19:30:56.075Z,14.10
2023-05-09T19:31:55.649Z,14.00
2023-05-09T19:32:55.638Z,14.50
2023-05-09T19:33:55.543Z,14.10
2023-05-09T19:34:55.554Z,13.20
2023-05-09T19:35:55.516Z,12.20
2023-05-09T19:36:55.520Z,11.70
2023-05-09T19:37:55.519Z,11.90
2023-05-09T19:38:55.512Z,12.40
2023-05-09T20:18:38.108Z,10.10
2023-05-09T20:19:16.083Z,9.80
2023-05-09T20:20:16.312Z,10.00
2023-05-09T20:21:16.366Z,9.50
2023-05-09T20:22:16.093Z,9.70
2023-05-09T20:23:16.176Z,8.90
2023-05-09T20:24:16.037Z,9.20
2023-05-09T20:25:16.343Z,9.90
2023-05-09T20:26:16.018Z,9.40
2023-05-09T20:27:16.114Z,10.90
2023-05-09T20:28:15.947Z,9.30
2023-05-09T20:29:16.013Z,9.80
2023-05-09T20:30:16.237Z,10.40
2023-05-09T20:31:16.100Z,9.50
2023-05-09T20:32:24.996Z,10.20
2023-05-09T20:33:17.321Z,10.10
2023-05-09T20:34:15.970Z,9.90
2023-05-09T20:35:15.994Z,10.40
2023-05-09T20:36:15.901Z,10.00
2023-05-09T20:37:16.074Z,10.50
2023-05-09T20:38:16.070Z,9.50
2023-05-09T20:39:15.965Z,10.40
2023-05-09T20:40:16.196Z,8.40
2023-05-09T20:41:15.929Z,8.80
2023-05-09T20:42:15.807Z,8.50
2023-05-09T20:43:15.925Z,8.70
2023-05-09T20:44:15.827Z,9.20
2023-05-09T20:45:15.753Z,8.80
2023-05-09T20:46:16.034Z,8.10
2023-05-09T20:47:15.874Z,8.10
2023-05-09T20:48:15.840Z,7.80
2023-05-09T20:49:15.786Z,7.60
2023-05-09T20:50:24.701Z,7.70
2023-05-09T20:51:15.796Z,7.80
2023-05-09T20:52:15.855Z,7.10
2023-05-09T20:53:15.797Z,7.20
2023-05-09T20:54:15.731Z,7.60
2023-05-09T20:55:15.960Z,7.50
2023-05-09T20:56:15.794Z,7.10
2023-05-09T20:57:15.730Z,7.30
2023-05-09T20:58:15.726Z,6.70
2023-05-09T20:59:16.247Z,6.70
2023-05-09T21:00:16.058Z,6.90
2023-05-09T21:01:15.862Z,6.20
2023-05-09T21:02:15.837Z,6.10
2023-05-09T21:03:15.831Z,6.50
2023-05-09T21:04:15.687Z,5.30
2023-05-09T21:05:15.628Z,4.90
2023-05-09T21:06:15.712Z,5.00
2023-05-09T21:07:15.597Z,4.70
2023-05-09T21:08:15.605Z,5.10
2023-05-09T21:09:15.580Z,5.00
2023-05-09T21:10:15.796Z,5.40
2023-05-09T21:11:15.522Z,5.10
2023-05-09T21:12:15.493Z,5.30
2023-05-09T21:13:15.597Z,4.90
2023-05-09T21:14:16.956Z,5.40
2023-05-09T21:15:15.552Z,4.80
2023-05-09T21:16:15.528Z,5.20
2023-05-09T21:17:15.637Z,5.50
2023-05-09T21:18:16.927Z,5.60
2023-05-09T21:19:15.526Z,6.00
2023-05-09T21:20:15.616Z,6.00
2023-05-09T21:21:15.515Z,6.40
2023-05-09T21:22:15.375Z,6.20
2023-05-09T21:23:15.441Z,5.80
2023-05-09T21:24:15.443Z,6.10
2023-05-09T21:25:15.381Z,6.50
2023-05-09T21:26:15.386Z,5.90
2023-05-09T21:27:15.340Z,5.80
2023-05-09T21:28:15.381Z,6.30
2023-05-09T21:29:17.418Z,6.40
2023-05-09T21:30:15.480Z,6.40
2023-05-09T21:31:15.294Z,6.50
2023-05-09T21:32:17.193Z,6.40
2023-05-09T21:33:15.355Z,6.50
2023-05-09T21:34:15.355Z,6.00
2023-05-09T21:35:15.347Z,6.20
2023-05-09T21:36:15.319Z,6.00
2023-05-09T21:37:15.402Z,6.30
2023-05-09T21:38:15.227Z,6.20
2023-05-09T21:39:15.208Z,6.20
2023-05-09T21:40:15.331Z,7.10
2023-05-09T21:41:15.194Z,6.70
2023-05-09T21:42:15.186Z,5.70
2023-05-09T21:43:15.214Z,5.80
2023-05-09T21:44:15.246Z,5.80
2023-05-09T21:45:15.124Z,5.70
2023-05-09T21:46:15.156Z,5.40
2023-05-09T21:47:15.232Z,4.80
2023-05-09T21:48:15.134Z,4.90
2023-05-09T21:49:15.084Z,5.50
2023-05-09T21:50:15.210Z,5.40
2023-05-09T21:51:15.088Z,5.30
2023-05-09T21:52:15.046Z,5.30
2023-05-09T21:53:15.069Z,5.10
2023-05-09T21:54:15.100Z,5.40
2023-05-09T21:55:17.031Z,5.60
2023-05-09T21:56:15.055Z,5.20
2023-05-09T21:57:15.188Z,5.30
2023-05-09T21:58:15.014Z,4.80
2023-05-09T21:59:15.052Z,5.30
2023-05-09T22:00:15.355Z,4.90
2023-05-09T22:01:15.023Z,5.30
2023-05-09T22:02:15.241Z,5.00
2023-05-09T22:03:15.019Z,5.60
2023-05-09T22:04:14.919Z,5.30
2023-05-09T22:05:14.968Z,4.70
2023-05-09T22:06:14.974Z,4.90
2023-05-09T22:07:14.895Z,4.90
2023-05-09T22:08:14.903Z,4.80
2023-05-09T22:09:14.897Z,4.70
2023-05-09T22:10:15.121Z,5.20
2023-05-09T22:11:15.342Z,5.70
2023-05-09T22:12:14.857Z,5.20
2023-05-09T22:13:14.967Z,5.00
2023-05-09T22:14:16.350Z,4.60
2023-05-09T22:15:14.892Z,4.80
2023-05-09T22:16:15.020Z,4.90
2023-05-09T22:17:14.793Z,4.80
2023-05-09T22:18:14.830Z,4.70
2023-05-09T22:19:14.784Z,4.80
2023-05-09T22:20:15.191Z,5.40
2023-05-09T22:21:14.710Z,5.00
2023-05-09T22:22:35.776Z,5.20
2023-05-09T22:23:14.762Z,4.90
2023-05-09T22:24:14.717Z,5.10
2023-05-09T22:25:14.710Z,5.20
2023-05-09T22:26:14.710Z,5.30
2023-05-09T22:27:14.653Z,5.60
2023-05-09T22:28:14.677Z,5.10
2023-05-09T22:29:14.757Z,5.10
2023-05-09T22:30:14.855Z,5.00
2023-05-09T22:31:14.813Z,4.80
2023-05-09T22:32:14.642Z,5.30
2023-05-09T22:33:14.595Z,5.00
2023-05-09T22:34:14.629Z,4.70
2023-05-09T22:35:14.580Z,5.00
2023-05-09T22:36:14.631Z,5.20
2023-05-09T22:37:14.600Z,5.30
2023-05-09T22:38:43.168Z,5.00
2023-05-09T22:39:14.549Z,5.10
2023-05-09T22:40:14.829Z,5.20
2023-05-09T22:41:14.558Z,4.90
2023-05-09T22:42:16.766Z,5.10
2023-05-09T23:00:16.056Z,6.80
2023-05-09T23:01:14.162Z,7.20
2023-05-09T23:02:14.207Z,7.00
2023-05-09T23:03:14.240Z,7.20
2023-05-09T23:04:14.047Z,7.00
2023-05-09T23:05:14.047Z,7.70
2023-05-09T23:06:14.055Z,7.10
2023-05-09T23:07:14.066Z,7.20
2023-05-09T23:08:14.101Z,6.90
2023-05-09T23:09:13.982Z,7.40
2023-05-09T23:10:14.137Z,6.90
2023-05-09T23:11:14.031Z,7.50
2023-05-09T23:12:13.934Z,7.20
2023-05-09T23:13:13.973Z,7.50
2023-05-09T23:14:13.973Z,7.10
2023-05-09T23:15:13.974Z,7.00
2023-05-09T23:16:13.991Z,6.60
2023-05-09T23:17:13.920Z,6.80
2023-05-09T23:18:13.887Z,7.00
2023-05-09T23:19:13.904Z,6.80
2023-05-09T23:20:14.190Z,6.00
2023-05-09T23:21:13.879Z,6.50
2023-05-09T23:22:13.953Z,6.60
2023-05-09T23:23:13.791Z,6.70
2023-05-09T23:24:13.830Z,6.30
2023-05-09T23:25:15.291Z,6.10
2023-05-09T23:26:13.781Z,6.10
2023-05-09T23:27:13.896Z,5.70
2023-05-09T23:28:13.805Z,5.60
2023-05-09T23:29:15.271Z,6.00
2023-05-09T23:30:13.870Z,6.90
2023-05-09T23:31:13.821Z,6.50
2023-05-09T23:32:13.777Z,5.70
2023-05-09T23:33:13.831Z,6.20
2023-05-09T23:34:13.686Z,6.60
2023-05-09T23:35:13.687Z,6.30
2023-05-09T23:36:15.126Z,6.90
2023-05-09T23:37:13.759Z,6.50
2023-05-09T23:38:13.662Z,6.30
2023-05-09T23:39:13.635Z,6.50
2023-05-09T23:40:13.922Z,6.80
2023-05-09T23:41:13.611Z,6.70
2023-05-09T23:42:13.667Z,6.40
2023-05-09T23:43:13.662Z,5.70
2023-05-09T23:44:13.658Z,6.30
2023-05-09T23:45:13.600Z,6.30
2023-05-09T23:46:13.589Z,6.40
2023-05-09T23:47:13.575Z,6.30
2023-05-09T23:48:13.552Z,6.20
2023-05-09T23:49:13.550Z,6.90
2023-05-09T23:50:13.832Z,6.90
2023-05-09T23:51:13.638Z,7.10
2023-05-09T23:52:13.627Z,6.30
2023-05-09T23:53:13.517Z,6.90
2023-05-09T23:54:13.502Z,6.50
2023-05-09T23:55:14.958Z,6.70
2023-05-09T23:56:13.495Z,6.70
2023-05-09T23:57:13.547Z,7.30
2023-05-09T23:58:13.483Z,6.60
2023-05-09T23:59:13.528Z,6.70
